createdAt,value
2019-05-13T00:01:43.564Z,8.67
2019-05-13T00:04:10.967Z,6.77
2019-05-13T00:06:50.267Z,6.70
2019-05-13T00:09:07.294Z,8.73
2019-05-13T00:11:34.720Z,5.17
2019-05-13T00:14:04.253Z,7.43
2019-05-13T00:16:31.084Z,7.70
2019-05-13T00:18:58.406Z,7.03
2019-05-13T00:21:25.759Z,7.67
2019-05-13T00:23:53.461Z,9.03
2019-05-13T00:26:20.923Z,10.33
2019-05-13T00:28:48.355Z,9.53
2019-05-13T00:31:15.696Z,7.97
2019-05-13T00:33:44.424Z,6.17
2019-05-13T00:36:14.108Z,7.53
2019-05-13T00:38:41.039Z,8.07
2019-05-13T00:41:08.490Z,7.23
2019-05-13T00:43:35.803Z,7.07
2019-05-13T00:46:03.867Z,5.83
2019-05-13T00:48:33.286Z,7.87
2019-05-13T00:51:00.464Z,7.33
2019-05-13T00:53:27.844Z,4.67
2019-05-13T00:55:55.194Z,3.30
2019-05-13T00:58:24.156Z,5.40
2019-05-13T01:00:51.492Z,3.17
2019-05-13T01:03:18.902Z,3.77
2019-05-13T01:05:46.228Z,3.57
2019-05-13T01:08:14.604Z,3.83
2019-05-13T01:10:44.881Z,4.10
2019-05-13T01:13:13.107Z,4.90
2019-05-13T01:15:40.134Z,3.60
2019-05-13T01:18:07.471Z,5.10
2019-05-13T01:20:34.816Z,4.70
2019-05-13T01:23:03.699Z,4.67
2019-05-13T01:25:33.478Z,4.33
2019-05-13T01:28:00.149Z,5.33
2019-05-13T01:30:27.473Z,4.10
2019-05-13T01:32:54.859Z,2.07
2019-05-13T01:35:23.602Z,4.20
2019-05-13T01:37:53.675Z,2.80
2019-05-13T01:40:20.414Z,2.80
2019-05-13T01:42:47.902Z,3.50
2019-05-13T01:45:15.248Z,3.07
2019-05-13T01:47:44.056Z,2.67
2019-05-13T01:50:14.014Z,3.30
2019-05-13T01:52:40.652Z,1.73
2019-05-13T01:55:07.973Z,2.10
2019-05-13T01:57:35.382Z,3.10
2019-05-13T02:00:04.778Z,2.17
2019-05-13T02:02:33.730Z,4.10
2019-05-13T02:05:03.770Z,2.83
2019-05-13T02:07:30.300Z,5.63
2019-05-13T02:09:58.315Z,2.20
2019-05-13T02:12:25.695Z,4.50
2019-05-13T02:14:53.475Z,3.77
2019-05-13T02:17:23.287Z,5.30
2019-05-13T02:19:49.938Z,2.27
2019-05-13T02:22:17.573Z,2.57
2019-05-13T02:24:44.931Z,5.80
2019-05-13T02:27:14.200Z,4.30
2019-05-13T02:29:43.513Z,3.77
2019-05-13T02:32:13.267Z,4.93
2019-05-13T02:34:43.301Z,5.07
2019-05-13T02:37:08.327Z,4.03
2019-05-13T02:39:35.671Z,2.70
2019-05-13T02:42:03.852Z,5.00
2019-05-13T02:44:33.406Z,3.37
2019-05-13T02:47:03.380Z,4.67
2019-05-13T02:49:32.452Z,3.20
2019-05-13T02:51:58.610Z,2.83
2019-05-13T02:54:25.998Z,4.63
2019-05-13T02:56:53.314Z,3.83
2019-05-13T02:59:22.683Z,3.83
2019-05-13T03:01:52.983Z,2.60
2019-05-13T03:04:18.711Z,6.50
2019-05-13T03:06:46.116Z,4.73
2019-05-13T03:09:13.518Z,5.57
2019-05-13T03:11:42.358Z,9.03
2019-05-13T03:14:12.833Z,5.10
2019-05-13T03:16:42.812Z,4.90
2019-05-13T03:19:13.273Z,4.80
2019-05-13T03:21:38.813Z,4.73
2019-05-13T03:24:06.152Z,3.53
2019-05-13T03:26:33.510Z,4.17
2019-05-13T03:29:02.825Z,5.00
2019-05-13T03:31:35.101Z,8.97
2019-05-13T03:33:58.989Z,7.97
2019-05-13T03:36:26.850Z,8.07
2019-05-13T03:39:04.568Z,8.27
2019-05-13T03:41:24.141Z,9.67
2019-05-13T03:43:53.233Z,6.77
2019-05-13T03:46:22.746Z,8.57
2019-05-13T03:48:52.683Z,6.40
2019-05-13T03:51:21.942Z,6.30
2019-05-13T03:53:47.849Z,4.93
2019-05-13T03:56:15.354Z,5.77
2019-05-13T03:58:43.581Z,6.43
2019-05-13T04:01:12.965Z,5.13
2019-05-13T04:03:43.526Z,7.77
2019-05-13T04:06:13.112Z,7.33
2019-05-13T04:08:38.142Z,7.37
2019-05-13T04:11:05.538Z,10.83
2019-05-13T04:13:33.736Z,6.13
2019-05-13T04:16:04.015Z,7.00
2019-05-13T04:18:32.035Z,9.00
2019-05-13T04:21:02.424Z,10.63
2019-05-13T04:23:28.082Z,8.80
2019-05-13T04:25:55.491Z,11.30
2019-05-13T04:28:22.940Z,11.83
2019-05-13T04:30:52.869Z,19.83
2019-05-13T04:33:23.041Z,13.27
2019-05-13T04:35:49.360Z,20.93
2019-05-13T04:38:16.909Z,18.00
2019-05-13T04:40:44.244Z,13.37
2019-05-13T04:43:13.065Z,15.40
2019-05-13T04:45:43.002Z,11.53
2019-05-13T04:48:12.793Z,11.23
2019-05-13T04:50:38.884Z,11.50
2019-05-13T04:53:06.337Z,10.30
2019-05-13T04:55:33.851Z,12.20
2019-05-13T04:58:03.436Z,13.23
2019-05-13T05:00:49.877Z,10.50
2019-05-13T05:03:22.724Z,13.17
2019-05-13T05:05:52.714Z,12.13
2019-05-13T05:08:36.992Z,11.93
2019-05-13T05:11:13.238Z,12.43
2019-05-13T05:13:48.565Z,10.90
2019-05-13T05:16:32.781Z,8.03
2019-05-13T05:19:15.714Z,12.73
2019-05-13T05:21:47.345Z,13.70
2019-05-13T05:24:33.103Z,18.93
2019-05-13T05:27:04.718Z,16.90
2019-05-13T05:29:36.645Z,16.03
2019-05-13T05:32:15.056Z,19.13
2019-05-13T05:34:47.088Z,19.43
2019-05-13T05:37:16.106Z,15.07
2019-05-13T05:39:43.572Z,13.03
2019-05-13T05:42:12.654Z,14.00
2019-05-13T05:44:42.091Z,10.17
2019-05-13T05:47:11.272Z,14.60
2019-05-13T05:49:40.983Z,17.73
2019-05-13T05:52:07.680Z,19.63
2019-05-13T05:54:36.001Z,15.27
2019-05-13T05:57:03.449Z,13.13
2019-05-13T05:59:32.039Z,15.57
2019-05-13T06:02:02.005Z,15.17
2019-05-13T06:04:28.478Z,15.83
2019-05-13T06:06:55.938Z,16.60
2019-05-13T06:09:24.075Z,15.63
2019-05-13T06:11:52.239Z,15.83
2019-05-13T06:14:21.942Z,19.27
2019-05-13T06:16:51.738Z,23.47
2019-05-13T06:19:18.563Z,16.57
2019-05-13T06:21:45.972Z,15.60
2019-05-13T06:24:13.316Z,17.07
2019-05-13T06:26:42.055Z,17.07
2019-05-13T06:29:11.641Z,16.90
2019-05-13T06:31:38.563Z,18.70
2019-05-13T06:34:05.894Z,15.83
2019-05-13T06:36:33.286Z,19.23
2019-05-13T06:39:02.250Z,16.67
2019-05-13T06:41:32.120Z,15.43
2019-05-13T06:43:58.582Z,18.70
2019-05-13T06:46:25.932Z,19.80
2019-05-13T06:48:53.291Z,20.93
2019-05-13T06:51:22.198Z,18.63
2019-05-13T06:53:51.766Z,18.30
2019-05-13T06:56:18.853Z,19.67
2019-05-13T06:58:46.180Z,16.07
2019-05-13T07:01:13.512Z,18.33
2019-05-13T07:03:41.980Z,15.50
2019-05-13T07:06:09.402Z,18.63
2019-05-13T07:08:36.737Z,11.67
2019-05-13T07:11:17.635Z,16.67
2019-05-13T07:13:33.086Z,15.37
2019-05-13T07:16:01.391Z,17.67
2019-05-13T07:18:28.947Z,16.43
2019-05-13T07:20:56.314Z,16.10
2019-05-13T07:23:23.661Z,17.77
2019-05-13T07:25:52.543Z,17.37
2019-05-13T07:28:21.928Z,22.87
2019-05-13T07:30:51.525Z,20.53
2019-05-13T07:33:18.388Z,18.53
2019-05-13T07:35:46.503Z,17.83
2019-05-13T07:38:14.016Z,20.43
2019-05-13T07:40:41.993Z,19.70
2019-05-13T07:43:09.497Z,23.20
2019-05-13T07:45:36.824Z,28.10
2019-05-13T07:48:18.347Z,19.70
2019-05-13T07:50:33.648Z,19.90
2019-05-13T07:53:02.285Z,19.43
2019-05-13T07:55:31.568Z,16.10
2019-05-13T07:57:58.886Z,17.93
2019-05-13T08:00:26.225Z,15.93
2019-05-13T08:02:53.590Z,17.00
2019-05-13T08:05:22.386Z,15.90
2019-05-13T08:07:51.502Z,14.27
2019-05-13T08:10:19.035Z,15.07
2019-05-13T08:12:46.498Z,17.80
2019-05-13T08:15:13.844Z,19.00
2019-05-13T08:17:47.024Z,18.97
2019-05-13T08:20:11.830Z,21.17
2019-05-13T08:22:39.167Z,19.87
2019-05-13T08:25:06.517Z,19.00
2019-05-13T08:27:35.176Z,23.17
2019-05-13T08:30:05.112Z,15.80
2019-05-13T08:32:32.563Z,21.50
2019-05-13T08:35:03.206Z,23.00
2019-05-13T08:37:28.985Z,16.67
2019-05-13T08:39:56.411Z,20.83
2019-05-13T08:42:24.001Z,20.37
2019-05-13T08:44:52.266Z,20.63
2019-05-13T08:47:22.205Z,15.63
2019-05-13T08:49:48.977Z,16.77
2019-05-13T08:52:16.377Z,10.97
2019-05-13T08:54:43.811Z,11.83
2019-05-13T08:57:11.855Z,13.67
2019-05-13T08:59:41.541Z,11.17
2019-05-13T09:02:08.555Z,11.03
2019-05-13T09:04:35.875Z,9.63
2019-05-13T09:07:03.234Z,13.80
2019-05-13T09:09:31.575Z,8.00
2019-05-13T09:11:59.049Z,7.07
2019-05-13T09:14:26.401Z,6.93
2019-05-13T09:16:53.752Z,3.63
2019-05-13T09:19:21.613Z,6.93
2019-05-13T09:21:49.201Z,6.90
2019-05-13T09:24:24.990Z,5.10
2019-05-13T09:26:45.619Z,3.77
2019-05-13T09:29:13.015Z,4.03
2019-05-13T09:31:43.363Z,4.07
2019-05-13T09:34:12.241Z,2.53
2019-05-13T09:36:41.740Z,4.87
2019-05-13T09:39:08.894Z,5.40
2019-05-13T09:41:40.892Z,4.03
2019-05-13T09:44:05.238Z,8.07
2019-05-13T09:46:32.685Z,5.30
2019-05-13T09:49:14.938Z,3.90
2019-05-13T09:51:29.057Z,3.30
2019-05-13T09:53:56.469Z,6.63
2019-05-13T09:56:23.815Z,6.00
2019-05-13T09:58:51.404Z,7.20
2019-05-13T10:01:18.901Z,2.97
2019-05-13T10:03:54.973Z,3.93
2019-05-13T10:06:15.283Z,2.07
2019-05-13T10:08:42.622Z,5.20
2019-05-13T10:11:11.991Z,3.57
2019-05-13T10:13:39.143Z,3.10
2019-05-13T10:16:06.497Z,8.70
2019-05-13T10:18:33.792Z,4.67
2019-05-13T10:21:01.605Z,7.33
2019-05-13T10:23:28.924Z,6.87
2019-05-13T10:25:57.930Z,2.57
2019-05-13T10:28:25.413Z,4.57
2019-05-13T10:30:53.293Z,3.87
2019-05-13T10:33:22.103Z,2.47
2019-05-13T10:35:52.448Z,3.77
2019-05-13T10:38:22.079Z,5.07
2019-05-13T10:40:51.723Z,4.27
2019-05-13T10:43:29.344Z,3.93
2019-05-13T10:45:47.034Z,5.13
2019-05-13T10:48:14.411Z,4.30
2019-05-13T10:50:41.971Z,5.40
2019-05-13T10:53:12.233Z,3.87
2019-05-13T10:55:38.466Z,4.92
2019-05-13T10:58:05.993Z,6.10
2019-05-13T11:00:37.628Z,6.67
2019-05-13T11:03:04.974Z,6.80
2019-05-13T11:05:32.878Z,3.63
2019-05-13T11:08:02.082Z,3.33
2019-05-13T11:10:32.605Z,3.13
2019-05-13T11:13:01.580Z,4.43
2019-05-13T11:15:35.892Z,2.40
2019-05-13T11:17:58.024Z,5.97
2019-05-13T11:20:25.487Z,3.43
2019-05-13T11:22:52.942Z,5.03
2019-05-13T11:25:21.842Z,7.90
2019-05-13T11:27:52.312Z,7.27
2019-05-13T11:30:21.565Z,12.00
2019-05-13T11:32:47.684Z,7.13
2019-05-13T11:35:15.075Z,5.73
2019-05-13T11:37:43.575Z,8.90
2019-05-13T11:40:12.022Z,10.90
2019-05-13T11:42:42.014Z,9.17
2019-05-13T11:45:10.944Z,12.43
2019-05-13T11:47:37.618Z,6.13
2019-05-13T11:50:05.764Z,3.10
2019-05-13T11:52:33.092Z,4.13
2019-05-13T11:55:02.570Z,3.47
2019-05-13T11:57:31.574Z,5.00
2019-05-13T11:59:58.590Z,3.33
2019-05-13T12:02:25.911Z,3.80
2019-05-13T12:04:53.761Z,4.53
2019-05-13T12:07:23.282Z,5.37
2019-05-13T12:09:51.856Z,5.10
2019-05-13T12:12:19.557Z,4.80
2019-05-13T12:17:15.900Z,6.60
2019-05-13T12:19:43.276Z,9.17
2019-05-13T12:22:13.171Z,4.97
2019-05-13T12:24:42.319Z,6.03
2019-05-13T12:27:09.257Z,7.10
2019-05-13T12:29:37.948Z,5.07
2019-05-13T12:32:05.337Z,4.70
2019-05-13T12:34:40.370Z,2.87
2019-05-13T12:37:03.207Z,4.13
2019-05-13T12:39:32.066Z,5.57
2019-05-13T12:42:03.095Z,4.27
2019-05-13T12:44:28.446Z,3.37
2019-05-13T12:46:55.806Z,2.73
2019-05-13T12:49:23.238Z,8.70
2019-05-13T12:51:51.647Z,5.57
2019-05-13T12:54:19.551Z,5.57
2019-05-13T12:56:46.845Z,3.93
2019-05-13T12:59:14.258Z,6.03
2019-05-13T13:01:41.660Z,5.93
2019-05-13T13:04:11.979Z,5.50
2019-05-13T13:06:41.572Z,5.57
2019-05-13T13:09:07.194Z,3.57
2019-05-13T13:11:34.615Z,4.87
2019-05-13T13:16:34.713Z,7.17
2019-05-13T13:19:02.465Z,7.27
2019-05-13T13:21:34.335Z,8.47
2019-05-13T13:23:57.860Z,5.03
2019-05-13T13:26:25.187Z,6.07
2019-05-13T13:28:55.880Z,3.33
2019-05-13T13:31:25.123Z,4.43
2019-05-13T13:33:55.325Z,3.90
2019-05-13T13:36:19.439Z,6.30
2019-05-13T13:38:46.841Z,3.13
2019-05-13T13:41:22.424Z,5.30
2019-05-13T13:43:43.181Z,5.97
2019-05-13T13:46:30.072Z,15.73
2019-05-13T13:48:40.082Z,14.23
2019-05-13T13:51:08.490Z,19.43
2019-05-13T13:53:35.796Z,9.40
2019-05-13T13:56:03.128Z,11.80
2019-05-13T13:58:32.610Z,9.23
2019-05-13T14:01:07.027Z,8.57
2019-05-13T14:03:28.437Z,2.83
2019-05-13T14:05:55.801Z,6.20
2019-05-13T14:06:59.636Z,3.47
2019-05-13T14:07:13.056Z,6.80
2019-05-13T14:08:23.523Z,9.07
2019-05-13T14:10:51.492Z,5.30
2019-05-13T14:13:18.917Z,4.73
2019-05-13T14:15:46.267Z,3.10
2019-05-13T14:18:13.562Z,2.87
2019-05-13T14:20:42.848Z,1.57
2019-05-13T14:23:12.450Z,4.47
2019-05-13T14:25:38.839Z,3.90
2019-05-13T14:28:06.182Z,6.17
2019-05-13T14:30:33.714Z,2.20
2019-05-13T14:33:02.327Z,2.93
2019-05-13T14:35:31.409Z,2.70
2019-05-13T14:37:58.747Z,4.87
2019-05-13T14:40:26.073Z,6.20
2019-05-13T14:42:53.504Z,4.73
2019-05-13T14:45:23.700Z,4.60
2019-05-13T14:47:50.084Z,3.43
2019-05-13T14:50:17.416Z,3.97
2019-05-13T14:52:44.724Z,7.63
2019-05-13T14:55:12.063Z,8.10
2019-05-13T14:57:41.316Z,3.93
2019-05-13T15:00:08.419Z,9.00
2019-05-13T15:02:36.034Z,9.83
2019-05-13T15:05:03.431Z,5.90
2019-05-13T15:07:32.183Z,9.20
2019-05-13T15:10:02.321Z,12.87
2019-05-13T15:12:28.760Z,5.83
2019-05-13T15:14:56.091Z,7.53
2019-05-13T15:17:23.398Z,5.40
2019-05-13T15:19:52.480Z,8.20
2019-05-13T15:22:22.469Z,9.43
2019-05-13T15:24:49.048Z,5.97
2019-05-13T15:27:16.530Z,4.43
2019-05-13T15:29:43.844Z,9.43
2019-05-13T15:32:11.234Z,3.97
2019-05-13T15:34:38.963Z,5.93
2019-05-13T15:37:06.268Z,7.00
2019-05-13T15:39:33.618Z,5.43
2019-05-13T15:42:01.975Z,6.50
2019-05-13T15:44:29.576Z,7.40
2019-05-13T15:46:59.420Z,6.73
2019-05-13T15:49:25.970Z,7.40
2019-05-13T15:51:53.416Z,6.80
2019-05-13T15:54:22.128Z,6.80
2019-05-13T15:56:49.572Z,9.13
2019-05-13T15:59:16.906Z,10.03
2019-05-13T16:01:44.224Z,10.40
2019-05-13T16:04:13.464Z,7.23
2019-05-13T16:06:41.782Z,8.87
2019-05-13T16:09:11.687Z,8.23
2019-05-13T16:11:38.458Z,12.40
2019-05-13T16:14:05.860Z,8.73
2019-05-13T16:16:33.337Z,7.30
2019-05-13T16:19:00.660Z,9.73
2019-05-13T16:21:28.348Z,10.93
2019-05-13T16:23:56.259Z,7.93
2019-05-13T16:26:27.102Z,8.83
2019-05-13T16:28:52.898Z,8.90
2019-05-13T16:31:20.211Z,6.00
2019-05-13T16:33:47.506Z,4.80
2019-05-13T16:36:14.830Z,9.70
2019-05-13T16:38:42.179Z,7.60
2019-05-13T16:41:11.806Z,4.13
2019-05-13T16:43:38.482Z,6.60
2019-05-13T16:46:07.274Z,5.07
2019-05-13T16:48:34.732Z,8.30
2019-05-13T16:51:02.116Z,8.83
2019-05-13T16:53:31.459Z,6.47
2019-05-13T16:55:58.384Z,4.93
2019-05-13T16:58:25.877Z,5.67
2019-05-13T17:00:55.898Z,7.50
2019-05-13T17:03:22.241Z,5.23
2019-05-13T17:05:51.387Z,5.90
2019-05-13T17:08:18.656Z,7.00
2019-05-13T17:10:46.004Z,7.93
2019-05-13T17:13:13.343Z,11.37
2019-05-13T17:15:41.671Z,8.27
2019-05-13T17:18:12.149Z,11.37
2019-05-13T17:20:38.104Z,8.73
2019-05-13T17:23:05.404Z,9.93
2019-05-13T17:25:32.814Z,6.73
2019-05-13T17:28:02.825Z,2.93
2019-05-13T17:30:29.235Z,7.63
2019-05-13T17:32:56.627Z,3.60
2019-05-13T17:35:24.041Z,10.90
2019-05-13T17:37:51.427Z,13.10
2019-05-13T17:40:18.783Z,12.47
2019-05-13T17:42:46.094Z,13.63
2019-05-13T17:45:13.438Z,11.27
2019-05-13T17:47:41.785Z,10.07
2019-05-13T17:50:11.516Z,7.03
2019-05-13T17:52:41.787Z,9.20
2019-05-13T17:55:11.549Z,10.60
2019-05-13T17:57:38.151Z,14.23
2019-05-13T18:00:08.183Z,17.83
2019-05-13T18:02:35.506Z,20.40
2019-05-13T18:05:02.864Z,10.00
2019-05-13T18:07:32.116Z,12.60
2019-05-13T18:10:01.315Z,11.37
2019-05-13T18:12:28.170Z,9.53
2019-05-13T18:14:55.534Z,13.17
2019-05-13T18:17:22.835Z,14.60
2019-05-13T18:19:51.523Z,13.83
2019-05-13T18:22:18.973Z,18.67
2019-05-13T18:24:46.384Z,18.30
2019-05-13T18:27:13.741Z,18.33
2019-05-13T18:29:42.028Z,16.40
2019-05-13T18:32:12.147Z,11.57
2019-05-13T18:34:38.461Z,14.23
2019-05-13T18:37:05.772Z,14.87
2019-05-13T18:39:33.139Z,10.63
2019-05-13T18:42:00.491Z,7.30
2019-05-13T18:44:27.824Z,7.97
2019-05-13T18:46:55.137Z,13.90
2019-05-13T18:49:22.480Z,7.17
2019-05-13T18:51:49.787Z,9.03
2019-05-13T18:54:17.166Z,10.73
2019-05-13T18:56:46.494Z,22.70
2019-05-13T18:59:13.450Z,23.93
2019-05-13T19:01:40.781Z,30.43
2019-05-13T19:04:08.117Z,26.23
2019-05-13T19:06:35.581Z,35.90
2019-05-13T19:09:03.100Z,34.73
2019-05-13T19:11:31.700Z,54.27
2019-05-13T19:13:59.252Z,62.40
2019-05-13T19:16:26.578Z,64.37
2019-05-13T19:18:53.922Z,53.07
2019-05-13T19:21:21.919Z,16.60
2019-05-13T19:23:51.268Z,30.70
2019-05-13T19:26:18.355Z,39.00
2019-05-13T19:28:45.721Z,34.40
2019-05-13T19:31:13.035Z,32.47
2019-05-13T19:33:41.611Z,22.73
2019-05-13T19:36:09.086Z,19.57
2019-05-13T19:38:36.424Z,24.03
2019-05-13T19:41:03.758Z,18.47
2019-05-13T19:43:31.538Z,21.73
2019-05-13T19:46:01.229Z,14.03
2019-05-13T19:48:28.097Z,17.33
2019-05-13T19:50:55.560Z,18.23
2019-05-13T19:53:22.860Z,17.17
2019-05-13T19:55:52.016Z,16.93
2019-05-13T19:58:21.506Z,15.40
2019-05-13T20:00:48.483Z,19.37
2019-05-13T20:03:15.783Z,15.93
2019-05-13T20:05:43.097Z,14.03
2019-05-13T20:08:10.494Z,17.93
2019-05-13T20:10:37.982Z,14.70
2019-05-13T20:13:05.314Z,17.23
2019-05-13T20:15:32.628Z,18.17
2019-05-13T20:18:01.425Z,13.50
2019-05-13T20:20:28.948Z,14.83
2019-05-13T20:22:56.248Z,15.60
2019-05-13T20:25:23.660Z,12.47
2019-05-13T20:27:51.520Z,14.70
2019-05-13T20:30:19.022Z,14.67
2019-05-13T20:32:46.404Z,11.03
2019-05-13T20:35:13.732Z,14.57
2019-05-13T20:37:48.300Z,14.70
2019-05-13T20:40:15.654Z,11.47
2019-05-13T20:42:42.960Z,10.50
2019-05-13T20:45:11.490Z,8.70
2019-05-13T20:47:39.278Z,8.07
2019-05-13T20:50:07.074Z,8.43
2019-05-13T20:52:34.455Z,7.70
2019-05-13T20:55:01.966Z,10.30
2019-05-13T20:57:29.450Z,11.23
2019-05-13T20:59:57.028Z,6.13
2019-05-13T21:02:24.346Z,5.60
2019-05-13T21:04:51.690Z,9.37
2019-05-13T21:07:18.996Z,5.63
2019-05-13T21:09:47.392Z,7.07
2019-05-13T21:12:14.756Z,5.53
2019-05-13T21:14:42.141Z,6.40
2019-05-13T21:17:12.045Z,4.73
2019-05-13T21:19:39.824Z,5.43
2019-05-13T21:22:08.194Z,3.53
2019-05-13T21:24:35.582Z,3.57
2019-05-13T21:27:02.970Z,5.53
2019-05-13T21:29:32.368Z,4.07
2019-05-13T21:32:01.118Z,8.10
2019-05-13T21:34:31.618Z,4.17
2019-05-13T21:36:59.374Z,10.77
2019-05-13T21:39:27.063Z,20.07
2019-05-13T21:41:55.466Z,13.93
2019-05-13T21:44:26.002Z,13.77
2019-05-13T21:46:53.097Z,16.40
2019-05-13T21:49:21.548Z,15.43
2019-05-13T21:51:49.031Z,16.63
2019-05-13T21:54:17.003Z,19.10
2019-05-13T21:56:44.425Z,18.90
2019-05-13T21:59:11.858Z,17.60
2019-05-13T22:01:42.051Z,19.93
2019-05-13T22:04:08.314Z,17.73
2019-05-13T22:06:35.623Z,14.33
2019-05-13T22:09:02.928Z,13.57
2019-05-13T22:11:31.706Z,14.50
2019-05-13T22:14:01.685Z,18.90
2019-05-13T22:16:28.443Z,15.93
2019-05-13T22:18:55.819Z,13.70
2019-05-13T22:21:23.174Z,8.90
2019-05-13T22:23:51.743Z,9.77
2019-05-13T22:26:19.291Z,4.50
2019-05-13T22:28:46.888Z,5.03
2019-05-13T22:31:14.228Z,7.33
2019-05-13T22:33:41.613Z,7.87
2019-05-13T22:36:08.955Z,4.67
2019-05-13T22:38:36.293Z,6.07
2019-05-13T22:41:03.649Z,7.37
2019-05-13T22:43:32.061Z,7.07
2019-05-13T22:45:59.628Z,6.60
2019-05-13T22:48:26.961Z,5.40
2019-05-13T22:50:54.348Z,8.13
2019-05-13T22:53:21.828Z,5.77
2019-05-13T22:55:51.985Z,6.70
2019-05-13T22:58:18.662Z,9.27
2019-05-13T23:00:46.057Z,7.90
2019-05-13T23:03:13.394Z,8.67
2019-05-13T23:05:41.624Z,6.13
2019-05-13T23:08:11.159Z,6.93
2019-05-13T23:10:38.148Z,7.53
2019-05-13T23:13:05.462Z,7.23
2019-05-13T23:15:32.795Z,7.10
2019-05-13T23:18:01.232Z,8.20
2019-05-13T23:20:28.747Z,6.20
2019-05-13T23:22:56.057Z,4.93
2019-05-13T23:25:23.483Z,5.70
2019-05-13T23:27:51.346Z,7.03
2019-05-13T23:30:18.768Z,5.77
2019-05-13T23:32:46.125Z,7.47
2019-05-13T23:35:13.406Z,7.03
2019-05-13T23:37:41.719Z,6.00
2019-05-13T23:40:09.044Z,9.50
2019-05-13T23:42:36.390Z,6.97
2019-05-13T23:45:05.079Z,8.07
2019-05-13T23:47:32.484Z,9.77
2019-05-13T23:50:01.724Z,9.43
2019-05-13T23:52:31.118Z,7.60
2019-05-13T23:54:57.952Z,9.33
2019-05-13T23:57:25.448Z,11.20
2019-05-13T23:59:52.964Z,10.60
